Audubon, Illinois
Current Conditions -  °F | °C
As of 3:35 PM on Monday 24 Nov 2014 (Local Time) from KTAZ Reporting Station
Overcast Overcast  
Wind Chill: -4°   Ceiling: 3300
Heat Index:   Visibility: 10mi
Dew Point: -2°   Wind: 15mph
Humidity: 81%   Direction: 260°W
Pressure: 29.76"   Gusts: 23mph
Location:  39.3183°N, 89.2952°W
Report Text: KTAZ 242135Z AUTO 26013G20KT 10SM OVC033 01/M02 A2976 RMK AO2
Loading
Personal Weather Stations






























Interactive Weather Map New forecast layout! Learn more

10-Day Weather Forecast

Advertisements
Track Severe Weather on mobile